Terminal Aerodrome Forecast
Issued by NWS Tallahassee, FL

Home | Current Version | Previous Version | Text Only | Print | Product List | Glossary On
Versions: 1 2 3 4 5 6 7 8 9 10 11 12 13 14 15 16
000
FTUS42 KTAE 152300
TAFTLH
TAF
KTLH 152320Z 1600/1624 VRB03KT P6SM OVC250
     FM161200 00000KT 5SM BR SCT025
     FM161500 26003KT P6SM VCTS SCT025CB BKN250
     FM162000 28007KT 6SM TSRA BKN025CB OVC250=

USA.gov is the U.S. government's official web portal to all federal, state and local government web resources and services.